x

La Perouse Bank (46206) Wave Buoy

3:00am - Thu 27th Nov 2014 All times are PST. -8 hours from GMT.

  • Sig Wave height 8.5ft
  • Peak Period 8s
  • Wind
    18mph, 22mph gusts
  • Sea Temp 54°f
  • Air Temp 55°f
  • Sea Pressure 1006.2mb
  • La Perouse Bank
  • La Perouse Bank

More Historic Weather Station data

Upgrade to MSW Pro to gain access to the past 30 days of data for over 8000 Wavebouys and Weather Stations around the globe.

Join Pro

Comparision Forecast

View Surf forecast
   
Thu 11/27 3:00am 8.5ft 8s 18 22 mph 1006.2mb 54f 55f
2:00am 8ft 8s 16 20 mph 1006.6mb 54f 54f
1:00am 8.5ft 8s 13 16 mph 1007.1mb 53f 54f
12:00am 9ft 8s 11 13 mph 1007.3mb 53f 54f
Wed 11/26 11:00pm 9ft 7s 11 13 mph 1006.9mb 53f 55f
10:00pm 10ft 7s 13 16 mph 1006.7mb 53f 54f
9:00pm 11ft 7s 22 31 mph 1005.7mb 53f 54f
8:00pm 10ft 7s 29 36 mph 1005.1mb 53f 55f
6:00pm 8ft 6s 29 36 mph 1007.3mb 53f 54f
5:00pm 8ft 6s 31 36 mph 1008.2mb 53f 54f
4:00pm 7.5ft 6s 29 36 mph 1009mb 54f 54f
3:00pm 7ft 7s 25 29 mph 1011.1mb 54f 54f
2:00pm 7ft 11s 22 25 mph 1012.7mb 54f 54f
1:00pm 7ft 8s 20 25 mph 1013.8mb 54f 54f
12:00pm 7ft 8s 20 25 mph 1014.5mb 54f 54f
11:00am 7ft 8s 18 22 mph 1015.4mb 54f 54f
10:00am 6.5ft 8s 18 20 mph 1015.7mb 54f 54f
9:00am 7ft 9s 16 20 mph 1015.9mb 54f 54f
8:00am 7ft 7s 16 20 mph 1016.5mb 54f 54f
7:00am 7ft 8s 16 18 mph 1016.1mb 54f 54f
6:00am 7ft 7s 13 16 mph 1016.8mb 54f 54f
5:00am 7.5ft 8s 18 20 mph 1017.2mb 54f 55f
4:00am 8ft 7s 16 20 mph 1017.2mb 54f 54f
3:00am 8ft 8s 16 20 mph 1017.3mb 54f 55f
2:00am 8ft 7s 16 18 mph 1017.7mb 54f 55f
1:00am 9ft 12s 18 20 mph 1017.8mb 54f 55f
12:00am 7.5ft 8s 20 27 mph 1018.4mb 54f 55f
Tue 11/25 11:00pm 8ft 8s 20 25 mph 1018.3mb 54f 55f
10:00pm 7.5ft 11s 20 22 mph 1018.3mb 54f 55f
9:00pm 6ft 11s 22 25 mph 1018.1mb 54f 55f
8:00pm 6.5ft 12s 16 20 mph 1018.2mb 54f 55f
7:00pm 7ft 12s 18 22 mph 1018.1mb 54f 50f
6:00pm 7ft 12s 20 25 mph 1018.4mb 54f 49f
5:00pm 7ft 12s 22 27 mph 1018.7mb 54f 49f
4:00pm 6.5ft 11s 22 29 mph 1019mb 54f 48f
3:00pm 6.5ft 13s 22 27 mph 1019.8mb 54f 48f
2:00pm 7ft 13s 22 27 mph 1020.2mb 54f 48f
1:00pm 7ft 12s 20 25 mph 1020.8mb 54f 48f
12:00pm 7.5ft 13s 18 22 mph 1021.4mb 54f 48f
11:00am 8ft 12s 16 22 mph 1022.5mb 54f 48f
10:00am 8ft 13s 2 4 mph 1022.8mb 54f 48f
9:00am 8.5ft 12s  -  2 mph 1022.6mb 54f 50f
8:00am 9.5ft 13s 4 9 mph 1022.3mb 54f 52f
7:00am 9ft 11s 7 9 mph 1021.8mb 54f 53f
6:00am 8.5ft 12s 9 13 mph 1022mb 54f 53f
5:00am 8ft 10s 11 16 mph 1021.7mb 54f 52f
4:00am 9ft 13s 16 20 mph 1021.3mb 54f 53f
3:00am 9ft 13s 9 13 mph 1021mb 54f 53f
2:00am 9ft 11s 9 13 mph 1020.6mb 54f 53f
1:00am 9.5ft 10s 11 16 mph 1020.6mb 54f 53f
12:00am 10ft 14s 11 16 mph 1020.4mb 54f 53f
Mon 11/24 11:00pm 10ft 9s 9 13 mph 1019.9mb 54f 54f
10:00pm 11ft 12s 9 11 mph 1018.7mb 54f 53f
9:00pm 11ft 13s 13 16 mph 1018.3mb 54f 53f
8:00pm 11.5ft 14s 13 18 mph 1017.1mb 54f 54f
7:00pm 12ft 12s 13 16 mph 1016.4mb 54f 53f
6:00pm 11ft 12s 13 18 mph 1015.6mb 54f 54f
5:00pm 12ft 12s 18 22 mph 1015mb 54f 54f
4:00pm 12ft 8s 20 25 mph 1014.7mb 54f 55f
3:00pm 12ft 13s 25 31 mph 1014.3mb 54f 54f
2:00pm 12ft 7s 29 36 mph 1015.2mb 54f 53f
1:00pm 11.5ft 13s 27 36 mph 1016.8mb 54f 53f
12:00pm 12ft 14s 27 31 mph 1018.1mb 55f 53f
11:00am 11.5ft 14s 22 29 mph 1019.4mb 55f 54f
10:00am 12ft 14s 25 29 mph 1019.8mb 55f 55f
9:00am 10.5ft 12s 25 29 mph 1020.2mb 55f 54f
8:00am 11ft 13s 25 31 mph 1020.9mb 54f 53f
7:00am 11ft 14s 29 36 mph 1021.5mb 54f 53f
6:00am 11ft 12s 27 34 mph 1021.9mb 54f 52f
5:00am 12ft 13s 27 34 mph 1022.7mb 54f 52f
4:00am 11ft 14s 22 27 mph 1023.8mb 54f 53f
3:00am 11ft 13s 18 22 mph 1025mb 54f 53f
2:00am 10.5ft 12s 18 20 mph 1025.1mb 54f 53f
1:00am 11ft 13s 13 16 mph 1025.4mb 54f 53f
12:00am 12ft 11s 11 16 mph 1025.5mb 54f 53f
Sun 11/23 11:00pm 12ft 14s 9 11 mph 1025.3mb 54f 53f
10:00pm 12ft 14s 4 7 mph 1025.4mb 54f 53f
9:00pm 12.5ft 14s 4 9 mph 1025.1mb 54f 53f
8:00pm 13.5ft 14s 4 7 mph 1024.5mb 54f 53f
7:00pm 14ft 14s 9 13 mph 1024.3mb 54f 53f
6:00pm 14ft 13s 11 18 mph 1024mb 54f 53f
5:00pm 15ft 11s 13 20 mph 1023.9mb 54f 53f
4:00pm 16.5ft 14s 16 20 mph 1022.6mb 54f 53f
3:00pm 16.5ft 14s 16 20 mph 1022.2mb 55f 53f
2:00pm 15ft 12s 18 25 mph 1021.4mb 54f 52f
1:00pm 15ft 14s 18 22 mph 1021.1mb 54f 52f